Time;durP1;ratioP1;P1;durP2;ratioP2;P2;SDS_P1;SDS_P2;PMS_P1;PMS_P2;Temp;Humidity;BMP_temperature;BMP_pressure;BME280_temperature;BME280_humidity;BME280_pressure;Samples;Min_cycle;Max_cycle;Signal;HPM_P1;HPM_P2
2024/01/09 00:00:39;;;;;;;8.25;3.30;;;;;;;-4.13;74.17;103293.31;6237388;23;20476;-89
2024/01/09 00:03:04;;;;;;;6.93;3.15;;;;;;;-4.14;74.22;103288.97;6238739;23;20003;-89
2024/01/09 00:05:30;;;;;;;7.28;3.33;;;;;;;-4.13;75.29;103290.78;6211902;23;20034;-89
2024/01/09 00:07:55;;;;;;;7.15;3.40;;;;;;;-4.16;74.69;103287.88;6212463;23;20012;-89
2024/01/09 00:10:20;;;;;;;7.20;3.60;;;;;;;-4.15;75.09;103288.78;6239645;23;19996;-90
2024/01/09 00:12:46;;;;;;;7.28;3.75;;;;;;;-4.16;75.50;103282.78;6238915;23;20014;-88
2024/01/09 00:15:11;;;;;;;7.20;3.00;;;;;;;-4.16;74.84;103285.31;6241062;23;20036;-88
2024/01/09 00:17:36;;;;;;;7.15;3.22;;;;;;;-4.15;75.22;103283.72;6216402;23;20092;-89
2024/01/09 00:20:02;;;;;;;7.97;3.72;;;;;;;-4.17;75.46;103273.34;6215397;23;20106;-89
2024/01/09 00:22:27;;;;;;;8.88;3.42;;;;;;;-4.18;75.37;103289.31;6243230;23;20000;-89
2024/01/09 00:24:53;;;;;;;7.93;3.58;;;;;;;-4.19;75.56;103279.84;6241873;23;20054;-89
2024/01/09 00:27:18;;;;;;;8.00;3.67;;;;;;;-4.20;76.00;103278.03;6216224;23;20000;-89
2024/01/09 00:29:43;;;;;;;8.13;3.28;;;;;;;-4.21;75.92;103274.59;6242937;23;20019;-89
2024/01/09 00:32:09;;;;;;;8.07;3.53;;;;;;;-4.21;75.62;103278.78;6243338;23;20069;-90
2024/01/09 00:34:34;;;;;;;7.13;3.03;;;;;;;-4.22;75.70;103275.28;6216226;23;20082;-89
2024/01/09 00:36:59;;;;;;;7.65;3.90;;;;;;;-4.23;75.99;103277.66;6242144;23;20000;-89
2024/01/09 00:39:25;;;;;;;6.70;3.60;;;;;;;-4.26;75.72;103277.28;6216218;23;20336;-89
2024/01/09 00:41:50;;;;;;;8.65;3.45;;;;;;;-4.26;76.47;103272.19;6216480;23;20280;-90
2024/01/09 00:44:16;;;;;;;7.53;3.30;;;;;;;-4.26;76.27;103274.75;6241198;23;19996;-89
2024/01/09 00:46:41;;;;;;;7.78;3.50;;;;;;;-4.28;76.37;103277.09;6216124;23;20058;-89
2024/01/09 00:49:06;;;;;;;7.47;3.33;;;;;;;-4.28;76.56;103286.38;6215924;23;20000;-89
2024/01/09 00:51:32;;;;;;;9.50;3.80;;;;;;;-4.30;76.21;103285.25;6241156;23;20024;-90
2024/01/09 00:53:58;;;;;;;9.73;3.50;;;;;;;-4.31;76.60;103274.19;6243126;23;20004;-89
2024/01/09 00:56:23;;;;;;;7.25;3.22;;;;;;;-4.31;76.18;103281.81;6243251;23;20378;-89
2024/01/09 00:58:48;;;;;;;7.22;3.47;;;;;;;-4.32;76.23;103277.44;6241542;23;20008;-89
2024/01/09 01:01:14;;;;;;;9.82;3.45;;;;;;;-4.33;76.09;103274.72;6240139;23;20336;-89
2024/01/09 01:03:40;;;;;;;8.68;3.35;;;;;;;-4.33;76.28;103277.25;6239630;23;20000;-89
2024/01/09 01:06:05;;;;;;;7.55;3.30;;;;;;;-4.34;76.88;103265.25;6240673;23;20019;-89
2024/01/09 01:08:31;;;;;;;8.52;3.45;;;;;;;-4.35;76.50;103273.63;6214958;23;20004;-89
2024/01/09 01:10:56;;;;;;;8.38;3.28;;;;;;;-4.35;76.90;103278.72;6215776;23;20399;-89
2024/01/09 01:13:21;;;;;;;9.18;3.30;;;;;;;-4.37;76.55;103274.34;6240080;23;20031;-88
2024/01/09 01:15:47;;;;;;;7.85;3.35;;;;;;;-4.38;76.74;103277.59;6242622;23;20012;-89
2024/01/09 01:18:13;;;;;;;7.53;3.40;;;;;;;-4.39;77.21;103288.53;6241777;23;20078;-89
2024/01/09 01:20:38;;;;;;;7.95;3.15;;;;;;;-4.42;77.28;103282.13;6215740;23;20030;-89
2024/01/09 01:23:04;;;;;;;9.35;3.58;;;;;;;-4.42;77.61;103283.06;6214524;23;20427;-89
2024/01/09 01:25:29;;;;;;;7.65;3.50;;;;;;;-4.43;77.15;103277.75;6215080;23;20007;-89
2024/01/09 01:27:54;;;;;;;7.47;3.30;;;;;;;-4.43;76.70;103285.38;6215455;23;20004;-89
2024/01/09 01:30:20;;;;;;;7.97;3.38;;;;;;;-4.43;76.82;103286.31;6241018;23;20517;-89
2024/01/09 01:32:45;;;;;;;8.25;3.10;;;;;;;-4.44;76.92;103287.03;6213955;23;20427;-89
2024/01/09 01:35:10;;;;;;;8.10;3.63;;;;;;;-4.45;77.39;103285.19;6242770;23;20043;-89
2024/01/09 01:37:36;;;;;;;10.10;3.80;;;;;;;-4.45;77.59;103289.38;6240273;23;20018;-88
2024/01/09 01:40:01;;;;;;;7.03;3.38;;;;;;;-4.47;76.91;103293.38;6241529;23;20014;-89
2024/01/09 01:42:26;;;;;;;9.93;3.60;;;;;;;-4.48;76.90;103289.91;6215681;23;20011;-89
2024/01/09 01:44:52;;;;;;;7.55;3.28;;;;;;;-4.48;77.49;103296.63;6215554;23;20003;-88
2024/01/09 01:47:18;;;;;;;7.05;3.20;;;;;;;-4.50;76.83;103288.81;6213537;23;20028;-89
2024/01/09 01:49:44;;;;;;;6.32;3.00;;;;;;;-4.51;77.22;103293.72;6241691;23;20031;-88
2024/01/09 01:52:11;;;;;;;8.18;3.63;;;;;;;-4.51;77.04;103289.53;6216008;23;20082;-88
2024/01/09 01:54:37;;;;;;;6.90;3.00;;;;;;;-4.53;77.42;103291.00;6241893;23;20004;-89
2024/01/09 01:57:05;;;;;;;7.25;3.25;;;;;;;-4.55;77.87;103295.88;6215876;23;20004;-89
2024/01/09 01:59:34;;;;;;;7.40;2.85;;;;;;;-4.57;77.40;103292.22;6215154;23;20011;-89
2024/01/09 02:02:02;;;;;;;8.75;3.80;;;;;;;-4.58;77.65;103292.03;6241757;23;20004;-88
2024/01/09 02:04:28;;;;;;;6.43;3.25;;;;;;;-4.60;77.04;103291.84;6240946;23;20008;-88
2024/01/09 02:06:54;;;;;;;8.00;3.10;;;;;;;-4.61;77.50;103287.47;6241457;23;20016;-89
2024/01/09 02:09:20;;;;;;;9.90;3.60;;;;;;;-4.63;78.03;103291.47;6215351;23;20054;-89
2024/01/09 02:11:48;;;;;;;7.45;3.08;;;;;;;-4.63;77.48;103286.38;6214359;23;20004;-88
2024/01/09 02:14:13;;;;;;;8.50;3.50;;;;;;;-4.64;77.60;103294.72;6241394;23;20439;-88
2024/01/09 02:16:39;;;;;;;8.27;3.15;;;;;;;-4.64;77.28;103288.75;6239632;23;20007;-88
2024/01/09 02:19:05;;;;;;;6.72;2.88;;;;;;;-4.65;78.34;103292.00;6240900;23;20054;-89
2024/01/09 02:21:30;;;;;;;7.97;3.38;;;;;;;-4.66;77.21;103286.00;6241372;23;20208;-89
2024/01/09 02:23:55;;;;;;;6.38;3.10;;;;;;;-4.66;78.10;103286.00;6240063;23;20070;-87
2024/01/09 02:26:29;;;;;;;7.43;3.20;;;;;;;-4.66;77.60;103282.53;6214440;23;20031;-89
2024/01/09 02:28:58;;;;;;;7.63;2.97;;;;;;;-4.68;77.90;103272.16;6214836;23;20332;-89
2024/01/09 02:31:25;;;;;;;6.72;3.40;;;;;;;-4.70;77.67;103278.72;6214016;23;20039;-89
2024/01/09 02:33:50;;;;;;;7.10;3.47;;;;;;;-4.72;77.89;103270.91;6213864;23;20436;-89
2024/01/09 02:36:15;;;;;;;8.45;3.45;;;;;;;-4.72;77.91;103278.53;6239291;23;20134;-88
2024/01/09 02:38:41;;;;;;;7.85;3.78;;;;;;;-4.72;78.39;103273.44;6214206;23;20027;-89
2024/01/09 02:41:06;;;;;;;8.30;3.40;;;;;;;-4.72;78.21;103275.09;6239235;23;20023;-88
2024/01/09 02:43:31;;;;;;;8.27;3.67;;;;;;;-4.73;78.37;103278.34;6213388;23;20064;-88
2024/01/09 02:45:57;;;;;;;6.53;3.22;;;;;;;-4.75;78.16;103275.59;6240650;23;20007;-89
2024/01/09 02:48:22;;;;;;;7.80;3.20;;;;;;;-4.75;78.67;103277.22;6238697;23;20509;-89
2024/01/09 02:50:47;;;;;;;8.68;3.53;;;;;;;-4.77;78.63;103269.41;6215423;23;20058;-89
2024/01/09 02:53:13;;;;;;;6.28;2.97;;;;;;;-4.77;78.99;103271.03;6214316;23;20390;-88
2024/01/09 02:55:38;;;;;;;8.93;2.95;;;;;;;-4.79;78.58;103275.03;6210905;23;20008;-88
2024/01/09 02:58:03;;;;;;;7.15;3.42;;;;;;;-4.79;79.21;103270.84;6239721;23;20003;-88
2024/01/09 03:00:30;;;;;;;7.40;3.38;;;;;;;-4.81;78.95;103263.75;6210934;23;20773;-88
2024/01/09 03:02:56;;;;;;;8.13;3.97;;;;;;;-4.82;79.13;103260.31;6237310;23;20008;-89
2024/01/09 03:05:21;;;;;;;9.27;3.45;;;;;;;-4.82;78.60;103261.91;6210284;23;20062;-88
2024/01/09 03:07:46;;;;;;;7.82;3.30;;;;;;;-4.82;78.84;103267.94;6239727;22;20008;-88
2024/01/09 03:10:12;;;;;;;8.55;3.30;;;;;;;-4.83;79.65;103258.47;6214705;23;20067;-89
2024/01/09 03:12:37;;;;;;;7.22;3.05;;;;;;;-4.86;79.18;103254.66;6241926;23;20027;-88
2024/01/09 03:15:03;;;;;;;7.15;3.47;;;;;;;-4.87;79.56;103258.81;6215331;23;20038;-89
2024/01/09 03:17:28;;;;;;;7.70;3.42;;;;;;;-4.88;79.89;103254.47;6214761;23;20011;-89
2024/01/09 03:19:54;;;;;;;8.32;3.60;;;;;;;-4.90;79.25;103258.44;6241807;23;20004;-89
2024/01/09 03:22:19;;;;;;;7.90;3.53;;;;;;;-4.92;79.84;103258.25;6239759;23;20517;-88
2024/01/09 03:24:44;;;;;;;7.25;3.03;;;;;;;-4.91;80.00;103266.75;6235919;23;20007;-89
2024/01/09 03:27:10;;;;;;;7.90;3.45;;;;;;;-4.93;79.98;103258.06;6238610;23;20004;-88
2024/01/09 03:29:35;;;;;;;7.82;3.65;;;;;;;-4.94;79.86;103263.84;6235986;23;20004;-89
2024/01/09 03:32:01;;;;;;;7.85;3.60;;;;;;;-4.95;80.37;103264.59;6235972;23;20008;-88
2024/01/09 03:34:26;;;;;;;7.82;3.13;;;;;;;-4.96;80.17;103257.66;6210427;23;20200;-88
2024/01/09 03:36:51;;;;;;;7.43;3.30;;;;;;;-4.97;80.12;103266.91;6210440;23;20039;-89
2024/01/09 03:39:16;;;;;;;7.43;3.15;;;;;;;-4.99;80.49;103258.19;6212599;23;20011;-88
2024/01/09 03:41:42;;;;;;;8.90;3.50;;;;;;;-4.99;80.89;103262.38;6212106;23;20008;-89
2024/01/09 03:44:09;;;;;;;9.93;3.65;;;;;;;-5.01;80.63;103253.63;6214017;23;20301;-88
2024/01/09 03:46:34;;;;;;;8.43;3.45;;;;;;;-5.03;80.76;103250.91;6243949;23;20465;-89
2024/01/09 03:49:00;;;;;;;8.27;3.42;;;;;;;-5.02;81.07;103256.91;6216107;23;20051;-88
2024/01/09 03:51:25;;;;;;;6.97;3.10;;;;;;;-5.02;80.69;103262.00;6244029;23;20000;-89
2024/01/09 03:53:52;;;;;;;9.70;3.75;;;;;;;-5.03;80.92;103255.97;6217033;23;20000;-88
2024/01/09 03:56:17;;;;;;;7.88;3.97;;;;;;;-5.04;80.63;103255.78;6242261;23;20015;-89
2024/01/09 03:58:43;;;;;;;8.20;3.22;;;;;;;-5.06;80.41;103251.41;6242141;23;20007;-88
2024/01/09 04:01:08;;;;;;;8.10;3.47;;;;;;;-5.06;80.94;103251.41;6216716;23;20058;-89
2024/01/09 04:03:33;;;;;;;8.20;3.10;;;;;;;-5.08;80.85;103257.94;6216840;23;20027;-88
2024/01/09 04:05:59;;;;;;;6.45;3.30;;;;;;;-5.08;80.71;103257.94;6216586;23;20016;-88
2024/01/09 04:08:24;;;;;;;8.13;3.60;;;;;;;-5.08;80.69;103257.06;6216709;23;20004;-88
2024/01/09 04:10:49;;;;;;;7.80;3.30;;;;;;;-5.09;80.80;103248.50;6243358;23;20071;-88
2024/01/09 04:13:15;;;;;;;7.75;3.60;;;;;;;-5.11;81.20;103242.31;6216376;23;20455;-89
2024/01/09 04:15:41;;;;;;;8.63;3.60;;;;;;;-5.12;81.32;103245.56;6243762;23;20000;-89
2024/01/09 04:18:06;;;;;;;8.52;3.72;;;;;;;-5.13;81.37;103251.38;6243794;23;20443;-89
2024/01/09 04:20:32;;;;;;;8.40;3.33;;;;;;;-5.14;81.20;103254.66;6244005;23;20007;-89
2024/01/09 04:22:57;;;;;;;8.70;3.35;;;;;;;-5.14;81.54;103252.09;6244067;23;20031;-89
2024/01/09 04:25:22;;;;;;;7.95;3.58;;;;;;;-5.16;81.41;103248.44;6242085;23;20084;-89
2024/01/09 04:27:48;;;;;;;9.20;3.70;;;;;;;-5.13;81.50;103253.00;6216893;23;20000;-88
2024/01/09 04:30:13;;;;;;;7.30;3.28;;;;;;;-5.13;81.58;103258.09;6241977;23;20004;-89
2024/01/09 04:32:38;;;;;;;7.15;3.33;;;;;;;-5.14;81.30;103251.19;6243437;23;20023;-89
2024/01/09 04:35:04;;;;;;;8.98;3.50;;;;;;;-5.14;81.65;103263.88;6216792;23;20383;-88
2024/01/09 04:37:30;;;;;;;8.55;3.55;;;;;;;-5.15;81.66;103255.34;6243625;23;20028;-89
2024/01/09 04:39:55;;;;;;;6.63;3.30;;;;;;;-5.16;81.43;103263.69;6241831;23;20371;-88
2024/01/09 04:42:20;;;;;;;9.63;3.35;;;;;;;-5.17;82.11;103250.78;6243252;23;20814;-88
2024/01/09 04:44:46;;;;;;;8.50;3.58;;;;;;;-5.17;81.66;103251.72;6241918;23;19996;-88
2024/01/09 04:47:15;;;;;;;7.90;3.33;;;;;;;-5.17;81.50;103251.72;6216237;23;20946;-88
2024/01/09 04:49:44;;;;;;;6.95;3.00;;;;;;;-5.17;81.33;103261.91;6243045;23;20032;-88
2024/01/09 04:52:10;;;;;;;9.70;3.42;;;;;;;-5.18;82.18;103257.53;6215306;23;20079;-88
2024/01/09 04:54:35;;;;;;;7.97;3.40;;;;;;;-5.20;81.59;103255.50;6240952;23;20407;-88
2024/01/09 04:57:01;;;;;;;9.05;4.38;;;;;;;-5.22;82.20;103260.38;6241247;23;20004;-88
2024/01/09 04:59:26;;;;;;;8.20;3.22;;;;;;;-5.24;81.59;103254.22;6241718;23;20012;-88
2024/01/09 05:01:51;;;;;;;7.60;3.20;;;;;;;-5.25;81.85;103260.00;6243056;23;20062;-88
2024/01/09 05:04:17;;;;;;;7.53;3.15;;;;;;;-5.26;81.89;103251.47;6215859;23;20142;-88
2024/01/09 05:06:42;;;;;;;8.43;3.28;;;;;;;-5.26;81.74;103251.47;6242909;23;20023;-88
2024/01/09 05:09:08;;;;;;;8.65;3.40;;;;;;;-5.26;81.76;103254.03;6242818;22;20403;-88
2024/01/09 05:11:33;;;;;;;9.50;3.75;;;;;;;-5.28;81.87;103247.81;6241436;23;20000;-88
2024/01/09 05:13:58;;;;;;;8.02;3.50;;;;;;;-5.26;81.65;103255.63;6241363;23;20631;-89
2024/01/09 05:16:24;;;;;;;7.25;3.50;;;;;;;-5.26;81.77;103253.09;6240931;23;20000;-88
2024/01/09 05:18:50;;;;;;;9.38;3.38;;;;;;;-5.27;81.61;103259.81;6215942;23;20004;-88
2024/01/09 05:21:15;;;;;;;9.90;4.13;;;;;;;-5.28;81.81;103262.16;6242477;23;20031;-88
2024/01/09 05:23:41;;;;;;;9.45;3.38;;;;;;;-5.28;81.66;103257.09;6242889;23;20051;-88
2024/01/09 05:26:06;;;;;;;7.95;3.58;;;;;;;-5.29;81.88;103250.16;6242726;23;20000;-89
2024/01/09 05:28:31;;;;;;;8.02;3.70;;;;;;;-5.30;81.69;103253.41;6243020;23;20004;-89
2024/01/09 05:30:57;;;;;;;7.05;3.60;;;;;;;-5.32;81.96;103244.69;6243013;23;20435;-88
2024/01/09 05:33:22;;;;;;;9.25;3.47;;;;;;;-5.34;81.50;103247.06;6216060;23;20015;-88
2024/01/09 05:35:47;;;;;;;7.45;3.38;;;;;;;-5.35;81.69;103244.31;6240945;23;20003;-88
2024/01/09 05:38:13;;;;;;;9.63;3.67;;;;;;;-5.35;82.10;103249.41;6240970;23;20095;-88
2024/01/09 05:40:38;;;;;;;7.97;3.88;;;;;;;-5.36;82.67;103248.47;6241054;23;20011;-89
2024/01/09 05:43:04;;;;;;;7.57;3.22;;;;;;;-5.37;82.03;103250.81;6215585;23;20004;-88
2024/01/09 05:45:29;;;;;;;9.38;4.13;;;;;;;-5.39;82.30;103250.63;6242323;23;20004;-88
2024/01/09 05:47:54;;;;;;;9.57;3.90;;;;;;;-5.38;82.26;103252.47;6240932;23;20004;-88
2024/01/09 05:50:20;;;;;;;9.52;3.78;;;;;;;-5.39;82.39;103247.19;6216255;23;20018;-89
2024/01/09 05:52:45;;;;;;;7.43;3.80;;;;;;;-5.38;82.03;103252.47;6241093;23;20004;-88
2024/01/09 05:55:11;;;;;;;9.30;4.00;;;;;;;-5.40;82.01;103253.91;6215711;23;20079;-88
2024/01/09 05:57:36;;;;;;;9.68;3.97;;;;;;;-5.42;82.46;103251.19;6242808;23;20026;-88
2024/01/09 06:00:02;;;;;;;8.57;3.75;;;;;;;-5.42;82.61;103256.25;6214317;23;20000;-88
2024/01/09 06:02:28;;;;;;;7.57;3.60;;;;;;;-5.42;82.59;103253.72;6242507;23;20063;-88
2024/01/09 06:04:53;;;;;;;9.45;3.92;;;;;;;-5.43;82.21;103251.88;6214235;23;20000;-88
2024/01/09 06:07:20;;;;;;;9.07;3.95;;;;;;;-5.45;82.79;103248.22;6240930;23;20012;-88
2024/01/09 06:09:46;;;;;;;9.75;3.97;;;;;;;-5.44;82.38;103242.44;6215614;23;20011;-88
2024/01/09 06:12:11;;;;;;;9.65;4.28;;;;;;;-5.45;82.42;103248.22;6242493;23;20004;-89
2024/01/09 06:14:37;;;;;;;9.30;4.13;;;;;;;-5.45;82.25;103247.31;6215939;23;20452;-89
2024/01/09 06:17:02;;;;;;;9.35;4.07;;;;;;;-5.48;82.22;103240.22;6240782;23;20003;-88
2024/01/09 06:19:28;;;;;;;10.05;4.15;;;;;;;-5.48;82.80;103245.28;6215528;23;20444;-89
2024/01/09 06:21:53;;;;;;;8.80;4.20;;;;;;;-5.48;82.96;103247.84;6242533;23;20004;-88
2024/01/09 06:24:18;;;;;;;9.40;3.88;;;;;;;-5.49;82.82;103256.19;6215434;23;20068;-88
2024/01/09 06:26:44;;;;;;;8.05;3.47;;;;;;;-5.51;82.76;103252.53;6215502;23;20447;-88
2024/01/09 06:29:09;;;;;;;9.95;4.13;;;;;;;-5.52;82.59;103257.41;6241259;23;20004;-88
2024/01/09 06:31:35;;;;;;;7.10;3.75;;;;;;;-5.53;83.04;103263.22;6215529;23;20000;-89
2024/01/09 06:34:00;;;;;;;9.68;4.05;;;;;;;-5.53;83.09;103264.13;6240942;23;20007;-89
2024/01/09 06:36:25;;;;;;;7.90;3.60;;;;;;;-5.54;82.94;103257.22;6240665;23;20599;-88
2024/01/09 06:38:51;;;;;;;7.55;4.22;;;;;;;-5.54;83.21;103269.94;6215648;23;20008;-88
2024/01/09 06:41:16;;;;;;;7.93;3.75;;;;;;;-5.55;83.40;103270.63;6240807;23;20088;-88
2024/01/09 06:43:42;;;;;;;8.48;3.83;;;;;;;-5.54;83.31;103279.19;6215632;23;20004;-89
2024/01/09 06:46:08;;;;;;;8.90;3.90;;;;;;;-5.54;83.63;103277.53;6242460;23;20083;-88
2024/01/09 06:48:34;;;;;;;9.02;3.58;;;;;;;-5.56;83.61;103279.00;6215478;23;20015;-89
2024/01/09 06:50:59;;;;;;;10.40;4.38;;;;;;;-5.54;83.26;103277.53;6215823;23;20395;-89
2024/01/09 06:53:25;;;;;;;9.15;4.05;;;;;;;-5.54;83.33;103284.25;6242621;23;20477;-89
2024/01/09 06:55:50;;;;;;;10.60;4.07;;;;;;;-5.53;83.58;103286.06;6240745;23;20008;-89
2024/01/09 06:58:16;;;;;;;9.98;4.20;;;;;;;-5.54;83.71;103279.19;6214975;23;20008;-89
2024/01/09 07:00:42;;;;;;;10.13;4.25;;;;;;;-5.53;83.50;103286.06;6242446;23;20004;-89
2024/01/09 07:03:08;;;;;;;11.68;4.65;;;;;;;-5.56;83.66;103278.06;6215191;23;20008;-89
2024/01/09 07:05:33;;;;;;;10.70;4.40;;;;;;;-5.58;84.04;103280.41;6212408;23;20099;-89
2024/01/09 07:07:59;;;;;;;9.32;4.32;;;;;;;-5.58;84.17;103282.94;6239208;22;20003;-88
2024/01/09 07:10:24;;;;;;;10.38;4.50;;;;;;;-5.57;84.28;103281.34;6241875;23;20095;-88
2024/01/09 07:12:49;;;;;;;10.15;4.70;;;;;;;-5.57;84.21;103283.88;6241212;23;20031;-89
2024/01/09 07:15:15;;;;;;;9.73;4.57;;;;;;;-5.61;84.38;103280.00;6217357;23;20004;-89
2024/01/09 07:17:41;;;;;;;9.23;3.88;;;;;;;-5.61;84.79;103285.09;6242763;23;20083;-89
2024/01/09 07:20:07;;;;;;;11.50;4.65;;;;;;;-5.61;85.00;103283.47;6244206;23;20138;-89
2024/01/09 07:22:32;;;;;;;11.15;4.65;;;;;;;-5.61;84.71;103285.09;6242786;23;20011;-87
2024/01/09 07:24:58;;;;;;;9.63;4.50;;;;;;;-5.61;85.06;103285.09;6217193;23;19997;-88
2024/01/09 07:27:23;;;;;;;11.60;4.75;;;;;;;-5.62;85.03;103279.13;6244294;23;20000;-88
2024/01/09 07:29:48;;;;;;;10.18;4.72;;;;;;;-5.62;85.16;103294.34;6242422;23;20008;-88
2024/01/09 07:32:14;;;;;;;10.40;4.35;;;;;;;-5.63;85.03;103297.59;6217223;23;20031;-88
2024/01/09 07:34:39;;;;;;;9.60;4.38;;;;;;;-5.62;84.95;103298.50;6242385;23;20007;-88
2024/01/09 07:37:04;;;;;;;10.63;4.60;;;;;;;-5.64;84.86;103303.38;6242684;23;20000;-89
2024/01/09 07:39:30;;;;;;;11.68;4.65;;;;;;;-5.65;84.99;103306.66;6244578;23;20331;-89
2024/01/09 07:41:55;;;;;;;9.95;4.47;;;;;;;-5.64;84.92;103311.00;6242726;23;20012;-89
2024/01/09 07:44:20;;;;;;;10.65;4.78;;;;;;;-5.65;84.79;103306.66;6217317;23;20003;-88
2024/01/09 07:46:46;;;;;;;10.88;4.47;;;;;;;-5.64;84.55;103315.19;6244251;23;20012;-89
2024/01/09 07:49:12;;;;;;;11.35;4.85;;;;;;;-5.64;84.71;103320.25;6216563;23;20074;-88
2024/01/09 07:51:37;;;;;;;12.48;4.88;;;;;;;-5.64;84.72;103310.09;6241894;23;20070;-87
2024/01/09 07:54:03;;;;;;;11.30;4.80;;;;;;;-5.64;84.69;103320.25;6241569;23;20028;-88
2024/01/09 07:56:29;;;;;;;10.27;4.82;;;;;;;-5.64;84.78;103323.72;6243016;23;20000;-87
2024/01/09 07:58:54;;;;;;;9.98;4.53;;;;;;;-5.63;85.59;103325.53;6243452;23;20057;-88
2024/01/09 08:01:20;;;;;;;9.00;4.10;;;;;;;-5.61;85.34;103313.94;6243777;23;20058;-87
2024/01/09 08:03:45;;;;;;;10.85;4.53;;;;;;;-5.58;85.23;103326.13;6243554;23;20008;-87
2024/01/09 08:06:13;;;;;;;9.68;4.60;;;;;;;-5.54;85.66;103318.19;6243053;23;20147;-87
2024/01/09 08:08:39;;;;;;;10.70;5.30;;;;;;;-5.50;84.95;103315.31;6243230;22;20011;-88
2024/01/09 08:11:05;;;;;;;12.40;4.95;;;;;;;-5.50;84.80;103320.41;6215760;23;20332;-88
2024/01/09 08:13:31;;;;;;;9.70;4.25;;;;;;;-5.49;85.10;103328.94;6215982;23;20050;-87
2024/01/09 08:15:56;;;;;;;11.48;4.72;;;;;;;-5.47;84.62;103330.06;6215219;23;20016;-88
2024/01/09 08:18:22;;;;;;;9.73;4.53;;;;;;;-5.48;84.76;103326.59;6214548;23;20014;-86
2024/01/09 08:20:47;;;;;;;10.23;4.80;;;;;;;-5.45;84.77;103339.66;6243134;23;20004;-88
2024/01/09 08:23:12;;;;;;;12.70;5.10;;;;;;;-5.44;84.91;103333.88;6243120;23;20486;-88
2024/01/09 08:25:38;;;;;;;13.27;5.32;;;;;;;-5.41;84.75;103334.28;6241364;23;20032;-88
2024/01/09 08:28:03;;;;;;;11.27;5.20;;;;;;;-5.38;84.88;103333.75;6241872;23;20008;-88
2024/01/09 08:30:29;;;;;;;11.85;5.20;;;;;;;-5.34;84.46;103335.09;6243457;23;20008;-88
2024/01/09 08:32:54;;;;;;;10.48;5.05;;;;;;;-5.30;84.88;103334.72;6241927;23;20004;-88
2024/01/09 08:35:19;;;;;;;8.73;4.95;;;;;;;-5.25;84.89;103336.25;6241239;23;20007;-88
2024/01/09 08:37:45;;;;;;;13.23;5.03;;;;;;;-5.18;84.11;103337.94;6241445;23;20004;-88
2024/01/09 08:40:10;;;;;;;11.40;5.15;;;;;;;-5.13;84.06;103341.97;6243226;23;20390;-88
2024/01/09 08:42:36;;;;;;;10.80;4.95;;;;;;;-5.08;83.92;103338.41;6243395;23;20034;-88
2024/01/09 08:45:01;;;;;;;12.10;5.60;;;;;;;-5.04;83.44;103337.13;6216177;23;20445;-87
2024/01/09 08:47:27;;;;;;;12.43;5.75;;;;;;;-5.01;83.49;103340.06;6243095;23;20019;-88
2024/01/09 08:49:53;;;;;;;10.48;5.32;;;;;;;-4.98;83.34;103343.00;6216821;23;20054;-88
2024/01/09 08:52:24;;;;;;;14.23;5.43;;;;;;;-4.97;83.13;103342.28;6243337;23;20053;-88
2024/01/09 08:54:50;;;;;;;11.25;4.65;;;;;;;-4.94;83.69;103340.13;6243402;23;20445;-88
2024/01/09 08:57:15;;;;;;;11.35;5.13;;;;;;;-4.92;82.86;103342.16;6241362;23;20027;-88
2024/01/09 08:59:41;;;;;;;12.45;5.50;;;;;;;-4.90;82.51;103339.78;6243550;23;20011;-88
2024/01/09 09:02:06;;;;;;;14.43;5.72;;;;;;;-4.88;82.43;103343.47;6241431;23;20000;-88
2024/01/09 09:04:32;;;;;;;12.65;5.00;;;;;;;-4.85;82.21;103351.47;6241123;23;20474;-88
2024/01/09 09:06:57;;;;;;;12.80;4.90;;;;;;;-4.79;82.29;103348.78;6241195;23;20016;-88
2024/01/09 09:09:22;;;;;;;11.50;5.40;;;;;;;-4.76;82.09;103341.53;6243123;22;20008;-88
2024/01/09 09:11:48;;;;;;;11.45;5.35;;;;;;;-4.70;81.26;103346.50;6216138;23;20079;-89
2024/01/09 09:14:13;;;;;;;12.95;5.70;;;;;;;-4.61;81.88;103350.16;6242837;23;20063;-89
2024/01/09 09:16:38;;;;;;;13.05;4.95;;;;;;;-4.55;81.30;103348.38;6242422;23;20007;-89
2024/01/09 09:19:04;;;;;;;11.98;5.53;;;;;;;-4.50;81.30;103359.13;6241675;23;20000;-89
2024/01/09 09:21:29;;;;;;;12.13;5.50;;;;;;;-4.48;80.13;103356.06;6240678;23;20029;-88
2024/01/09 09:23:54;;;;;;;13.50;5.43;;;;;;;-4.49;80.12;103353.34;6240807;23;20368;-88
2024/01/09 09:26:20;;;;;;;12.90;5.75;;;;;;;-4.50;80.38;103344.78;6242722;23;20000;-89
2024/01/09 09:28:47;;;;;;;12.32;5.25;;;;;;;-4.46;80.51;103351.16;6215811;23;20024;-88
2024/01/09 09:31:13;;;;;;;12.10;5.15;;;;;;;-4.48;80.04;103345.88;6243136;23;20431;-88
2024/01/09 09:33:41;;;;;;;13.98;5.60;;;;;;;-4.51;79.63;103349.69;6241237;23;20054;-88
2024/01/09 09:36:07;;;;;;;13.27;5.60;;;;;;;-4.54;79.68;103345.13;6242799;23;20000;-88
2024/01/09 09:38:33;;;;;;;12.43;5.50;;;;;;;-4.54;79.96;103334.94;6242229;23;20000;-88
2024/01/09 09:41:05;;;;;;;12.50;5.32;;;;;;;-4.55;80.01;103345.84;6242355;23;20079;-88
2024/01/09 09:43:33;;;;;;;12.68;5.22;;;;;;;-4.54;79.75;103347.69;6242482;23;20458;-88
2024/01/09 09:46:01;;;;;;;11.38;5.30;;;;;;;-4.54;80.10;103348.56;6242310;23;20004;-88
2024/01/09 09:48:28;;;;;;;11.38;4.97;;;;;;;-4.54;79.79;103343.50;6216901;23;20014;-89
2024/01/09 09:50:54;;;;;;;10.73;4.85;;;;;;;-4.51;79.25;103342.97;6216055;23;20435;-88
2024/01/09 09:53:22;;;;;;;10.35;5.30;;;;;;;-4.48;79.77;103348.44;6215423;23;20312;-88
2024/01/09 09:55:47;;;;;;;13.55;5.72;;;;;;;-4.48;79.81;103343.34;6240626;23;20004;-88
2024/01/09 09:58:13;;;;;;;11.52;5.35;;;;;;;-4.46;80.10;103346.06;6242143;23;20022;-87
2024/01/09 10:00:39;;;;;;;10.57;5.10;;;;;;;-4.46;79.15;103341.00;6241853;23;20036;-88
2024/01/09 10:03:09;;;;;;;11.80;5.28;;;;;;;-4.44;78.84;103340.47;6240597;23;20031;-88
2024/01/09 10:05:40;;;;;;;13.25;5.57;;;;;;;-4.45;79.36;103336.09;6241757;23;20066;-88
2024/01/09 10:08:11;;;;;;;10.45;4.75;;;;;;;-4.43;79.59;103342.28;6241875;22;20083;-88
2024/01/09 10:10:37;;;;;;;10.15;4.90;;;;;;;-4.40;79.10;103336.69;6240326;23;20439;-88
2024/01/09 10:13:03;;;;;;;11.90;5.20;;;;;;;-4.39;78.84;103325.75;6241642;23;20010;-88
2024/01/09 10:15:29;;;;;;;11.80;5.53;;;;;;;-4.38;78.93;103325.94;6241520;23;20000;-88
2024/01/09 10:17:54;;;;;;;11.82;5.05;;;;;;;-4.37;78.50;103327.78;6215290;23;20003;-87
2024/01/09 10:20:19;;;;;;;11.48;5.30;;;;;;;-4.37;79.02;103321.78;6215521;23;20011;-87
2024/01/09 10:22:45;;;;;;;10.65;4.88;;;;;;;-4.35;78.97;103316.88;6240612;23;20008;-88
2024/01/09 10:25:12;;;;;;;11.25;5.13;;;;;;;-4.32;78.84;103322.34;6239504;23;20051;-87
2024/01/09 10:27:41;;;;;;;11.93;5.38;;;;;;;-4.31;78.10;103325.09;6215202;23;20011;-88
2024/01/09 10:30:08;;;;;;;11.10;4.95;;;;;;;-4.27;78.80;103323.81;6215465;23;20011;-88
2024/01/09 10:32:36;;;;;;;12.23;5.18;;;;;;;-4.25;78.06;103324.94;6215231;23;20083;-88
2024/01/09 10:35:03;;;;;;;10.43;4.65;;;;;;;-4.22;78.03;103317.66;6215073;23;20442;-88
2024/01/09 10:37:30;;;;;;;10.90;5.25;;;;;;;-4.21;78.03;103320.41;6215338;23;20008;-88
2024/01/09 10:39:56;;;;;;;13.77;6.10;;;;;;;-4.18;78.36;103321.53;6240624;23;20083;-88
2024/01/09 10:42:21;;;;;;;10.63;5.03;;;;;;;-4.16;77.96;103313.31;6242123;23;20085;-87
2024/01/09 10:44:50;;;;;;;11.02;5.32;;;;;;;-4.12;78.18;103309.53;6242045;23;20030;-88
2024/01/09 10:47:17;;;;;;;14.02;5.80;;;;;;;-4.09;77.23;103310.81;6215264;23;20054;-88
2024/01/09 10:49:44;;;;;;;13.50;5.95;;;;;;;-4.06;78.10;103295.91;6215368;23;20536;-88
2024/01/09 10:52:14;;;;;;;12.35;5.47;;;;;;;-4.03;77.55;103295.38;6215130;23;20011;-88
2024/01/09 10:54:44;;;;;;;13.68;5.57;;;;;;;-4.00;75.98;103297.38;6240358;23;20004;-88
2024/01/09 10:57:12;;;;;;;11.50;5.53;;;;;;;-3.98;76.75;103295.91;6241574;23;20477;-88
2024/01/09 10:59:45;;;;;;;12.20;5.20;;;;;;;-3.95;77.00;103298.88;6239465;23;20023;-88
2024/01/09 11:02:21;;;;;;;12.93;5.28;;;;;;;-3.92;76.23;103291.59;6215052;23;20000;-87
2024/01/09 11:04:47;;;;;;;12.35;5.63;;;;;;;-3.89;76.52;103290.31;6242079;23;19997;-88
2024/01/09 11:07:17;;;;;;;11.18;5.13;;;;;;;-3.86;75.94;103280.50;6241860;23;20012;-88
2024/01/09 11:09:44;;;;;;;12.55;5.28;;;;;;;-3.82;75.75;103278.31;6215008;23;20004;-88
2024/01/09 11:12:21;;;;;;;11.50;5.07;;;;;;;-3.79;76.14;103274.53;6240519;23;20402;-87
2024/01/09 11:14:52;;;;;;;13.82;5.78;;;;;;;-3.76;75.90;103272.34;6240222;23;20013;-88